Time;durP1;ratioP1;P1;durP2;ratioP2;P2;SDS_P1;SDS_P2;PMS_P1;PMS_P2;Temp;Humidity;BMP_temperature;BMP_pressure;BME280_temperature;BME280_humidity;BME280_pressure;Samples;Min_cycle;Max_cycle;Signal;HPM_P1;HPM_P2
2021/03/01 00:00:15;;;;;;;16.53;6.23;;;;;;;4.16;77.20;102892.22;5074702;28;20178;-68
2021/03/01 00:02:41;;;;;;;24.60;6.57;;;;;;;4.13;77.85;102894.84;5074265;28;20266;-68
2021/03/01 00:05:08;;;;;;;13.60;5.77;;;;;;;4.09;78.29;102896.59;5074487;28;20195;-68
2021/03/01 00:07:33;;;;;;;19.97;6.07;;;;;;;4.15;77.67;102896.63;5075668;28;20175;-68
2021/03/01 00:09:59;;;;;;;16.87;4.77;;;;;;;4.13;77.99;102895.72;5075403;28;20182;-68
2021/03/01 00:12:24;;;;;;;17.33;5.80;;;;;;;4.09;78.19;102888.66;5075214;28;20266;-67
2021/03/01 00:14:49;;;;;;;19.93;6.33;;;;;;;4.12;77.52;102898.38;5075138;28;20194;-68
2021/03/01 00:17:14;;;;;;;15.97;6.47;;;;;;;4.10;77.91;102898.34;5075236;28;20170;-68
2021/03/01 00:19:40;;;;;;;22.90;6.53;;;;;;;4.10;78.26;102902.75;5075565;28;20178;-68
2021/03/01 00:22:05;;;;;;;21.30;6.40;;;;;;;4.04;78.18;102893.88;5074351;28;20172;-68
2021/03/01 00:24:30;;;;;;;15.40;5.37;;;;;;;4.04;77.76;102896.53;5075847;28;20205;-68
2021/03/01 00:26:56;;;;;;;16.83;5.63;;;;;;;4.08;78.15;102905.34;5075227;28;20183;-68
2021/03/01 00:29:21;;;;;;;23.63;6.00;;;;;;;4.11;77.71;102905.41;5057249;28;20639;-68
2021/03/01 00:31:47;;;;;;;15.87;4.60;;;;;;;4.12;77.87;102899.25;5076971;28;20194;-67
2021/03/01 00:34:12;;;;;;;12.07;4.87;;;;;;;4.14;78.04;102909.81;5077619;28;20273;-68
2021/03/01 00:36:37;;;;;;;18.13;5.63;;;;;;;4.15;77.29;102907.19;5077290;28;20175;-67
2021/03/01 00:39:03;;;;;;;16.77;5.47;;;;;;;4.19;77.64;102908.09;5076389;28;20194;-69
2021/03/01 00:41:29;;;;;;;22.33;5.17;;;;;;;4.21;77.68;102909.88;5073669;28;20178;-68
2021/03/01 00:43:54;;;;;;;19.57;5.87;;;;;;;4.16;77.72;102903.66;5073540;28;20182;-68
2021/03/01 00:46:19;;;;;;;14.67;5.53;;;;;;;4.15;77.83;102904.53;5074761;28;20182;-68
2021/03/01 00:48:44;;;;;;;25.97;5.87;;;;;;;4.06;78.01;102905.34;5074468;28;20171;-68
2021/03/01 00:51:10;;;;;;;13.67;5.53;;;;;;;4.09;78.72;102904.50;5074864;28;20194;-68
2021/03/01 00:53:35;;;;;;;22.63;5.70;;;;;;;4.13;78.01;102905.41;5074809;28;20174;-69
2021/03/01 00:56:00;;;;;;;18.70;5.93;;;;;;;4.08;77.62;102900.94;5077126;28;20199;-68
2021/03/01 00:58:26;;;;;;;17.27;5.63;;;;;;;4.06;77.48;102907.09;5075445;28;20183;-68
2021/03/01 01:00:51;;;;;;;13.97;6.07;;;;;;;4.12;77.38;102908.94;5074949;28;20654;-68
2021/03/01 01:03:18;;;;;;;17.77;6.07;;;;;;;4.13;76.80;102900.13;5074860;28;20249;-67
2021/03/01 01:05:43;;;;;;;24.17;6.50;;;;;;;4.14;77.09;102909.81;5056111;28;20310;-68
2021/03/01 01:08:08;;;;;;;23.23;6.20;;;;;;;4.18;76.63;102901.91;5074758;28;20254;-68
2021/03/01 01:10:35;;;;;;;17.10;6.40;;;;;;;4.13;77.36;102903.66;5072881;28;20539;-67
2021/03/01 01:13:00;;;;;;;15.53;6.13;;;;;;;4.09;77.43;102896.59;5074054;28;20643;-68
2021/03/01 01:15:26;;;;;;;16.70;6.33;;;;;;;4.18;76.68;102901.03;5072737;28;20202;-68
2021/03/01 01:17:51;;;;;;;24.83;6.87;;;;;;;4.05;77.46;102895.66;5056085;28;20258;-67
2021/03/01 01:20:17;;;;;;;18.27;5.77;;;;;;;3.98;77.53;102893.84;5072993;28;20175;-68
2021/03/01 01:22:42;;;;;;;20.97;6.57;;;;;;;3.95;77.66;102893.81;5073125;28;20208;-69
2021/03/01 01:25:09;;;;;;;16.77;5.80;;;;;;;4.00;77.21;102896.50;5074121;28;20544;-69
2021/03/01 01:27:35;;;;;;;20.07;5.87;;;;;;;4.05;77.07;102900.94;5073905;28;20201;-69
2021/03/01 01:30:01;;;;;;;15.23;5.80;;;;;;;4.06;76.86;102896.53;5072916;28;20174;-69
2021/03/01 01:32:26;;;;;;;13.83;5.50;;;;;;;4.08;77.34;102887.75;5074421;28;20194;-67
2021/03/01 01:34:51;;;;;;;13.57;4.80;;;;;;;4.05;77.68;102887.72;5073931;28;20260;-67
2021/03/01 01:37:17;;;;;;;18.90;5.60;;;;;;;3.97;78.06;102881.50;5074025;28;20183;-68
2021/03/01 01:39:42;;;;;;;14.20;5.00;;;;;;;4.03;77.20;102878.91;5073008;28;20175;-67
2021/03/01 01:42:07;;;;;;;13.20;4.90;;;;;;;4.07;77.42;102883.31;5093216;28;20273;-68
2021/03/01 01:44:33;;;;;;;16.03;5.47;;;;;;;4.06;77.08;102880.69;5075924;28;20214;-68
2021/03/01 01:46:58;;;;;;;18.30;5.57;;;;;;;4.06;77.62;102873.63;5074284;28;20170;-68
2021/03/01 01:49:23;;;;;;;13.83;5.23;;;;;;;4.01;77.67;102875.38;5073794;28;20205;-68
2021/03/01 01:51:49;;;;;;;19.63;5.83;;;;;;;4.10;77.31;102871.03;5073721;28;20190;-68
2021/03/01 01:54:14;;;;;;;14.27;4.93;;;;;;;4.16;76.82;102869.31;5074214;28;20730;-68
2021/03/01 01:56:40;;;;;;;15.73;5.40;;;;;;;4.16;77.57;102852.56;5072863;28;20604;-67
2021/03/01 01:59:06;;;;;;;15.87;5.37;;;;;;;4.16;77.22;102857.84;5055651;28;20174;-67
2021/03/01 02:01:32;;;;;;;18.07;4.70;;;;;;;4.15;77.42;102854.34;5074029;28;20167;-68
2021/03/01 02:04:01;;;;;;;17.30;5.43;;;;;;;4.16;76.57;102853.47;5055556;28;20171;-68
2021/03/01 02:06:45;;;;;;;17.13;5.03;;;;;;;4.17;76.88;102846.41;5072307;28;20182;-69
2021/03/01 02:09:41;;;;;;;18.87;6.17;;;;;;;4.19;77.18;102844.66;5073875;28;20204;-67
2021/03/01 02:12:16;;;;;;;18.40;5.03;;;;;;;4.18;76.91;102845.53;5074104;28;20179;-67
2021/03/01 02:14:58;;;;;;;19.63;5.27;;;;;;;4.20;77.00;102842.03;5072314;28;20582;-67
2021/03/01 02:17:24;;;;;;;23.93;6.00;;;;;;;4.21;77.10;102846.44;5073525;28;20619;-69
2021/03/01 02:19:49;;;;;;;16.33;5.10;;;;;;;4.21;76.89;102848.19;5073208;28;20182;-68
2021/03/01 02:22:14;;;;;;;13.33;4.40;;;;;;;4.21;77.25;102850.84;5074474;28;20296;-69
2021/03/01 02:24:46;;;;;;;15.17;4.97;;;;;;;4.19;76.96;102856.13;5071996;28;20202;-67
2021/03/01 02:27:16;;;;;;;19.07;5.00;;;;;;;4.19;77.31;102848.19;5055391;28;20171;-68
2021/03/01 02:29:42;;;;;;;18.30;5.33;;;;;;;4.22;77.10;102857.88;5072062;28;20266;-68
2021/03/01 02:32:08;;;;;;;15.43;4.50;;;;;;;4.11;76.95;102852.56;5072197;28;20682;-68
2021/03/01 02:34:37;;;;;;;17.23;4.73;;;;;;;4.06;77.31;102855.13;5071525;28;20264;-68
2021/03/01 02:37:07;;;;;;;14.13;4.67;;;;;;;3.99;77.77;102855.09;5071642;28;20175;-68
2021/03/01 02:39:35;;;;;;;22.67;5.20;;;;;;;4.05;77.19;102853.38;5056250;28;20174;-68
2021/03/01 02:42:01;;;;;;;16.83;5.07;;;;;;;4.13;76.88;102853.44;5072438;28;20163;-68
2021/03/01 02:44:26;;;;;;;15.83;5.10;;;;;;;4.15;76.44;102840.22;5072092;28;20203;-68
2021/03/01 02:46:52;;;;;;;20.87;6.00;;;;;;;4.17;76.79;102834.06;5072596;28;20174;-68
2021/03/01 02:49:18;;;;;;;15.57;4.67;;;;;;;4.16;76.75;102842.00;5055879;28;20262;-68
2021/03/01 02:51:46;;;;;;;15.93;5.20;;;;;;;4.14;77.26;102851.69;5073806;28;20266;-68
2021/03/01 02:54:12;;;;;;;21.27;4.87;;;;;;;4.10;77.24;102852.53;5072662;28;20222;-68
2021/03/01 02:56:38;;;;;;;18.67;5.17;;;;;;;4.07;77.40;102848.97;5073163;28;20178;-68
2021/03/01 02:59:04;;;;;;;16.30;5.10;;;;;;;4.07;77.46;102848.09;5072186;28;20179;-68
2021/03/01 03:01:30;;;;;;;14.27;5.03;;;;;;;4.06;77.85;102847.22;5072166;28;20171;-68
2021/03/01 03:03:56;;;;;;;16.47;5.23;;;;;;;4.05;77.65;102856.00;5072095;28;20175;-68
2021/03/01 03:06:24;;;;;;;23.70;5.30;;;;;;;4.03;77.57;102857.75;5075462;28;20175;-68
2021/03/01 03:08:51;;;;;;;12.70;4.50;;;;;;;4.04;77.12;102854.25;5077417;28;20175;-67
2021/03/01 03:11:18;;;;;;;21.70;6.10;;;;;;;3.97;77.21;102852.44;5061483;28;20210;-68
2021/03/01 03:13:46;;;;;;;20.27;5.00;;;;;;;4.00;77.02;102862.16;5085970;28;20175;-68
2021/03/01 03:16:12;;;;;;;14.10;4.77;;;;;;;3.99;76.86;102865.66;5083166;28;20201;-67
2021/03/01 03:18:38;;;;;;;20.83;5.53;;;;;;;3.74;77.82;102854.94;5079559;28;20171;-68
2021/03/01 03:21:03;;;;;;;21.87;5.40;;;;;;;3.78;78.28;102855.84;5071750;28;20197;-68
2021/03/01 03:23:28;;;;;;;21.13;5.03;;;;;;;3.91;77.45;102857.69;5071823;28;20270;-67
2021/03/01 03:25:54;;;;;;;18.17;4.57;;;;;;;4.00;77.08;102860.38;5071296;28;20187;-68
2021/03/01 03:28:19;;;;;;;19.60;5.30;;;;;;;4.03;76.76;102865.69;5073235;28;20246;-67
2021/03/01 03:30:44;;;;;;;17.97;5.13;;;;;;;3.93;76.73;102866.50;5075939;28;20607;-68
2021/03/01 03:33:10;;;;;;;17.40;4.83;;;;;;;3.93;77.82;102863.88;5075851;28;20175;-68
2021/03/01 03:35:35;;;;;;;16.13;3.87;;;;;;;3.91;77.23;102862.97;5074332;28;20195;-67
2021/03/01 03:38:13;;;;;;;19.07;4.40;;;;;;;3.80;77.19;102872.59;5074531;28;20175;-67
2021/03/01 03:40:42;;;;;;;14.33;4.57;;;;;;;3.85;76.84;102859.41;5074737;28;20171;-68
2021/03/01 03:43:07;;;;;;;18.47;3.77;;;;;;;3.90;76.32;102855.03;5074454;28;20219;-68
2021/03/01 03:45:33;;;;;;;17.37;4.17;;;;;;;3.93;76.04;102870.91;5074531;28;20214;-68
2021/03/01 03:48:02;;;;;;;17.20;4.27;;;;;;;3.90;76.91;102874.41;5074923;28;20178;-68
2021/03/01 03:50:28;;;;;;;17.40;4.80;;;;;;;3.91;76.52;102877.94;5075879;28;20178;-67
2021/03/01 03:52:57;;;;;;;19.17;4.47;;;;;;;3.90;76.17;102870.88;5074362;28;20653;-67
2021/03/01 03:55:23;;;;;;;12.53;4.07;;;;;;;3.92;76.06;102872.66;5057727;28;20195;-68
2021/03/01 03:58:04;;;;;;;17.63;4.40;;;;;;;3.94;76.12;102878.84;5074730;28;20173;-67
2021/03/01 04:00:31;;;;;;;13.93;4.43;;;;;;;3.97;76.02;102877.97;5074127;28;20197;-68
2021/03/01 04:03:01;;;;;;;15.67;4.40;;;;;;;3.98;75.92;102879.75;5074150;28;20181;-67
2021/03/01 04:05:27;;;;;;;10.00;3.73;;;;;;;3.99;75.81;102879.75;5057245;28;20186;-67
2021/03/01 04:07:54;;;;;;;13.97;4.03;;;;;;;3.84;76.05;102877.03;5074721;28;20175;-68
2021/03/01 04:10:19;;;;;;;12.30;4.07;;;;;;;3.80;76.74;102884.91;5074578;28;20189;-67
2021/03/01 04:12:46;;;;;;;17.43;4.57;;;;;;;3.87;76.96;102884.97;5075552;28;20273;-68
2021/03/01 04:15:14;;;;;;;16.60;4.70;;;;;;;3.81;76.95;102887.56;5074551;28;20190;-68
2021/03/01 04:17:41;;;;;;;20.50;5.07;;;;;;;3.68;77.69;102894.50;5074130;28;20190;-67
2021/03/01 04:20:08;;;;;;;19.00;4.33;;;;;;;3.71;77.26;102899.78;5057360;28;20175;-67
2021/03/01 04:22:34;;;;;;;15.33;4.57;;;;;;;3.68;77.06;102897.13;5057171;28;20178;-67
2021/03/01 04:25:01;;;;;;;10.83;3.77;;;;;;;3.68;77.38;102896.25;5073868;28;20190;-67
2021/03/01 04:27:27;;;;;;;19.53;4.90;;;;;;;3.68;77.59;102898.88;5074745;28;20175;-67
2021/03/01 04:29:52;;;;;;;9.80;4.07;;;;;;;3.69;77.39;102905.94;5077609;28;20190;-68
2021/03/01 04:32:18;;;;;;;12.03;4.13;;;;;;;3.77;77.06;102901.63;5074486;28;20201;-68
2021/03/01 04:34:43;;;;;;;14.03;4.57;;;;;;;3.75;76.93;102908.66;5075841;28;20206;-68
2021/03/01 04:37:09;;;;;;;21.00;5.20;;;;;;;3.68;77.30;102909.44;5093375;28;20171;-68
2021/03/01 04:39:34;;;;;;;12.90;4.10;;;;;;;3.74;77.30;102909.53;5089017;28;20171;-67
2021/03/01 04:41:59;;;;;;;11.33;4.40;;;;;;;3.69;77.16;102913.84;5073058;28;20163;-68
2021/03/01 04:44:25;;;;;;;10.80;4.00;;;;;;;3.67;76.90;102915.59;5073628;28;20209;-67
2021/03/01 04:46:54;;;;;;;13.40;4.67;;;;;;;3.70;76.88;102920.91;5073950;28;20167;-68
2021/03/01 04:49:21;;;;;;;16.30;4.77;;;;;;;3.78;76.87;102910.44;5074823;28;20194;-68
2021/03/01 04:51:48;;;;;;;13.93;4.30;;;;;;;3.84;76.69;102908.72;5074725;28;20281;-68
2021/03/01 04:54:13;;;;;;;15.87;4.93;;;;;;;3.68;76.63;102922.66;5073234;28;20191;-67
2021/03/01 04:56:45;;;;;;;20.80;5.77;;;;;;;3.53;77.27;102914.59;5074576;28;20175;-67
2021/03/01 04:59:14;;;;;;;14.83;4.93;;;;;;;3.44;78.21;102911.03;5073176;28;20655;-67
2021/03/01 05:01:40;;;;;;;14.70;4.93;;;;;;;3.42;78.00;102899.56;5073125;28;20179;-67
2021/03/01 05:04:06;;;;;;;16.23;4.63;;;;;;;3.38;77.65;102896.88;5073058;28;20190;-67
2021/03/01 05:06:31;;;;;;;15.93;4.57;;;;;;;3.41;77.58;102899.56;5073244;28;20180;-66
2021/03/01 05:09:00;;;;;;;16.77;4.97;;;;;;;3.40;77.04;102901.31;5074103;28;20197;-66
2021/03/01 05:11:34;;;;;;;10.00;3.87;;;;;;;3.50;76.90;102899.63;5073985;28;20730;-67
2021/03/01 05:14:00;;;;;;;11.93;4.43;;;;;;;3.49;77.22;102904.91;5074020;28;20700;-67
2021/03/01 05:16:27;;;;;;;19.47;5.47;;;;;;;3.59;76.68;102904.09;5074013;28;20185;-67
2021/03/01 05:18:53;;;;;;;17.43;4.87;;;;;;;3.65;76.06;102893.59;5072913;28;20178;-67
2021/03/01 05:21:18;;;;;;;17.73;5.30;;;;;;;3.59;76.59;102888.25;5074402;28;20166;-67
2021/03/01 05:23:43;;;;;;;19.03;4.50;;;;;;;3.53;76.91;102893.50;5074139;28;20232;-68
2021/03/01 05:26:09;;;;;;;15.83;5.07;;;;;;;3.46;77.12;102895.19;5073661;28;20243;-67
2021/03/01 05:28:36;;;;;;;17.70;4.60;;;;;;;3.52;77.01;102895.25;5072541;28;20199;-68
2021/03/01 05:31:01;;;;;;;24.87;5.10;;;;;;;3.56;76.82;102885.59;5055652;28;20209;-67
2021/03/01 05:33:26;;;;;;;17.00;4.63;;;;;;;3.57;76.72;102884.72;5072497;28;20175;-67
2021/03/01 05:35:52;;;;;;;10.03;4.17;;;;;;;3.55;77.08;102897.03;5074353;28;20195;-68
2021/03/01 05:38:17;;;;;;;15.47;4.93;;;;;;;3.53;77.25;102896.13;5073895;28;20713;-66
2021/03/01 05:40:42;;;;;;;18.40;4.87;;;;;;;3.49;77.58;102899.63;5074324;28;20173;-68
2021/03/01 05:43:10;;;;;;;15.67;4.67;;;;;;;3.49;77.45;102889.06;5073619;28;20178;-67
2021/03/01 05:45:36;;;;;;;17.87;4.70;;;;;;;3.56;76.91;102902.31;5081366;22;20215;-73
2021/03/01 05:48:01;;;;;;;18.43;5.57;;;;;;;3.55;76.44;102897.03;5054880;28;20183;-73
2021/03/01 05:50:26;;;;;;;14.10;4.57;;;;;;;3.55;76.84;102897.91;5064528;28;20590;-72
2021/03/01 05:52:53;;;;;;;17.90;5.40;;;;;;;3.59;76.40;102897.06;5057542;28;20192;-72
2021/03/01 05:55:21;;;;;;;11.37;4.50;;;;;;;3.63;75.89;102896.22;5033390;28;20283;-72
2021/03/01 05:57:46;;;;;;;14.97;5.10;;;;;;;3.64;76.46;102897.97;5034234;28;20176;-72
2021/03/01 06:00:13;;;;;;;16.50;4.70;;;;;;;3.62;76.30;102894.44;5033670;28;20173;-72
2021/03/01 06:02:38;;;;;;;14.00;4.50;;;;;;;3.64;76.55;102897.09;5038372;28;20632;-72
2021/03/01 06:05:04;;;;;;;16.03;4.97;;;;;;;3.69;76.35;102906.81;5032604;28;20199;-73
2021/03/01 06:07:29;;;;;;;12.03;4.00;;;;;;;3.69;76.06;102898.91;5032863;28;20233;-73
2021/03/01 06:09:54;;;;;;;12.57;4.40;;;;;;;3.73;76.26;102899.84;5033316;28;20221;-73
2021/03/01 06:12:20;;;;;;;17.43;5.37;;;;;;;3.80;75.67;102900.75;5032714;28;20199;-73
2021/03/01 06:14:45;;;;;;;17.03;4.50;;;;;;;3.88;75.08;102906.97;5033969;28;20192;-72
2021/03/01 06:17:18;;;;;;;16.07;4.13;;;;;;;3.93;74.78;102899.97;5032261;28;20187;-72
2021/03/01 06:19:47;;;;;;;14.70;3.77;;;;;;;3.94;74.66;102905.28;5033897;28;20168;-72
2021/03/01 06:22:12;;;;;;;19.67;4.07;;;;;;;3.95;75.14;102901.75;5033721;28;20258;-72
2021/03/01 06:24:38;;;;;;;10.53;3.97;;;;;;;3.95;74.42;102893.81;5015869;28;20227;-73
2021/03/01 06:27:04;;;;;;;15.17;4.17;;;;;;;3.92;74.67;102911.41;5032093;28;20260;-72
2021/03/01 06:29:29;;;;;;;14.70;4.43;;;;;;;3.95;74.00;102906.16;5034519;28;20176;-72
2021/03/01 06:31:54;;;;;;;11.97;4.03;;;;;;;3.96;74.13;102900.88;5049147;28;20203;-72
2021/03/01 06:34:29;;;;;;;12.30;3.80;;;;;;;4.00;74.62;102915.88;5033444;28;20185;-72
2021/03/01 06:37:17;;;;;;;14.27;4.10;;;;;;;4.00;74.83;102910.59;5032416;28;20247;-72
2021/03/01 06:39:47;;;;;;;16.40;5.03;;;;;;;4.03;74.74;102907.09;5033617;28;20153;-72
2021/03/01 06:42:15;;;;;;;18.73;5.07;;;;;;;4.04;74.09;102912.38;5033918;28;20700;-72
2021/03/01 06:44:41;;;;;;;15.73;4.33;;;;;;;4.06;74.48;102904.47;5033003;28;20676;-72
2021/03/01 06:47:06;;;;;;;13.20;4.47;;;;;;;4.12;74.01;102909.81;5033617;28;20167;-72
2021/03/01 06:49:34;;;;;;;17.03;5.80;;;;;;;4.15;73.77;102912.47;5033967;28;20180;-72
2021/03/01 06:52:00;;;;;;;12.93;4.97;;;;;;;4.17;73.41;102907.19;5032776;28;20192;-72
2021/03/01 06:54:26;;;;;;;11.63;5.20;;;;;;;4.23;72.97;102916.03;5033623;28;20177;-72
2021/03/01 06:56:52;;;;;;;14.10;4.37;;;;;;;4.26;73.00;102917.81;5033859;28;20176;-72
2021/03/01 06:59:18;;;;;;;12.43;5.63;;;;;;;4.29;73.27;102931.06;5033597;28;20191;-72
2021/03/01 07:01:51;;;;;;;13.53;6.77;;;;;;;4.25;73.17;102926.63;5032993;28;20191;-72
2021/03/01 07:04:29;;;;;;;16.33;5.90;;;;;;;4.32;72.53;102928.44;5033246;28;20172;-72
2021/03/01 07:06:56;;;;;;;16.30;4.47;;;;;;;4.33;72.00;102920.50;5019197;28;20256;-73
2021/03/01 07:09:26;;;;;;;13.10;4.80;;;;;;;4.31;72.43;102926.66;5037393;28;20173;-71
2021/03/01 07:11:51;;;;;;;18.67;5.60;;;;;;;4.31;72.13;102926.66;5035817;28;20199;-71
2021/03/01 07:14:19;;;;;;;14.33;5.03;;;;;;;4.36;71.78;102931.09;5036293;28;20177;-72
2021/03/01 07:16:52;;;;;;;14.57;4.87;;;;;;;4.37;71.43;102929.34;5035532;28;20651;-71
2021/03/01 07:19:29;;;;;;;14.13;5.00;;;;;;;4.37;71.17;102937.28;5036029;28;20183;-71
2021/03/01 07:22:07;;;;;;;20.13;5.43;;;;;;;4.15;72.76;102930.09;5036117;28;20243;-71
2021/03/01 07:24:32;;;;;;;16.73;5.07;;;;;;;4.21;72.71;102951.28;5035841;28;20198;-72
2021/03/01 07:26:59;;;;;;;20.83;5.07;;;;;;;4.25;72.39;102942.50;5036992;28;20273;-71
2021/03/01 07:29:29;;;;;;;12.60;4.70;;;;;;;4.20;72.37;102946.88;5036697;28;20521;-72
2021/03/01 07:32:06;;;;;;;10.03;4.83;;;;;;;4.35;72.26;102953.13;5036132;28;20183;-72
2021/03/01 07:34:32;;;;;;;9.87;4.47;;;;;;;4.44;71.55;102954.94;5034914;28;20667;-73
2021/03/01 07:36:59;;;;;;;13.50;5.40;;;;;;;4.54;71.51;102956.78;5034927;28;20196;-72
2021/03/01 07:39:25;;;;;;;15.60;5.90;;;;;;;4.63;70.92;102950.66;5036109;28;20234;-73
2021/03/01 07:41:51;;;;;;;20.13;5.83;;;;;;;4.68;70.47;102955.09;5035142;28;20164;-73
2021/03/01 07:44:24;;;;;;;13.97;5.70;;;;;;;4.73;70.44;102957.75;5035073;28;20505;-73
2021/03/01 07:46:50;;;;;;;17.67;6.50;;;;;;;4.78;70.90;102961.28;5036179;28;20153;-73
2021/03/01 07:49:36;;;;;;;17.60;5.60;;;;;;;4.72;70.89;102962.16;5035614;28;20188;-73
2021/03/01 07:52:01;;;;;;;15.13;6.37;;;;;;;4.76;70.97;102947.19;5035893;28;20184;-73
2021/03/01 07:54:56;;;;;;;18.73;6.03;;;;;;;4.83;70.08;102959.59;5034518;28;20587;-72
2021/03/01 07:57:23;;;;;;;17.93;7.00;;;;;;;4.87;70.00;102957.84;5036025;28;20210;-72
2021/03/01 07:59:49;;;;;;;17.13;6.57;;;;;;;4.79;70.16;102964.81;5034899;28;20169;-73
2021/03/01 08:02:25;;;;;;;16.93;6.10;;;;;;;4.83;69.34;102969.25;5034574;28;20176;-71
2021/03/01 08:04:52;;;;;;;15.90;5.87;;;;;;;4.80;69.28;102959.53;5034867;28;20202;-72
2021/03/01 08:07:17;;;;;;;15.80;6.50;;;;;;;4.86;69.35;102964.00;5035233;28;20179;-72
2021/03/01 08:09:53;;;;;;;18.20;6.10;;;;;;;4.91;68.82;102964.91;5035129;28;20176;-73
2021/03/01 08:12:28;;;;;;;12.37;5.73;;;;;;;4.96;69.09;102966.69;5034683;28;20188;-73
2021/03/01 08:14:53;;;;;;;14.63;5.33;;;;;;;4.98;69.14;102966.69;5035540;28;20573;-73
2021/03/01 08:17:24;;;;;;;13.43;5.70;;;;;;;4.91;69.41;102962.25;5037117;28;20183;-71
2021/03/01 08:19:49;;;;;;;16.00;6.00;;;;;;;4.85;69.64;102956.94;5035583;28;20175;-71
2021/03/01 08:22:15;;;;;;;17.17;5.83;;;;;;;4.85;69.22;102968.41;5036096;28;20172;-73
2021/03/01 08:24:46;;;;;;;17.90;6.30;;;;;;;4.91;68.92;102960.50;5035772;28;20207;-71
2021/03/01 08:27:27;;;;;;;23.13;6.53;;;;;;;4.61;70.55;102966.50;5035373;28;20176;-72
2021/03/01 08:30:17;;;;;;;12.60;5.63;;;;;;;4.69;70.23;102962.13;5035517;28;20179;-72
2021/03/01 08:32:42;;;;;;;15.60;6.33;;;;;;;4.78;69.63;102965.69;5034998;28;20195;-72
2021/03/01 08:35:21;;;;;;;14.20;5.63;;;;;;;4.96;69.98;102958.75;5034026;28;20188;-72
2021/03/01 08:37:47;;;;;;;21.73;6.63;;;;;;;5.05;69.21;102973.78;5033482;28;20172;-72
2021/03/01 08:40:19;;;;;;;17.77;6.47;;;;;;;5.07;69.74;102965.84;5035227;28;20224;-73
2021/03/01 08:42:50;;;;;;;27.43;7.30;;;;;;;4.87;70.67;102971.06;5033626;28;20172;-72
2021/03/01 08:45:21;;;;;;;16.57;6.73;;;;;;;5.18;69.08;102966.75;5034803;28;20342;-72
2021/03/01 08:47:48;;;;;;;14.07;6.80;;;;;;;5.29;68.66;102965.03;5017110;28;20176;-71
2021/03/01 08:50:13;;;;;;;17.70;6.27;;;;;;;5.48;68.40;102965.94;5035148;28;20182;-71
2021/03/01 08:52:45;;;;;;;14.73;5.97;;;;;;;5.67;67.54;102962.47;5034595;28;20200;-71
2021/03/01 08:55:11;;;;;;;11.73;5.63;;;;;;;5.73;66.64;102969.53;5034940;28;20196;-71
2021/03/01 08:57:54;;;;;;;16.87;8.63;;;;;;;5.81;66.20;102959.81;5034432;28;20176;-73
2021/03/01 09:00:20;;;;;;;16.00;7.00;;;;;;;5.94;66.10;102958.97;5034779;28;20160;-72
2021/03/01 09:02:45;;;;;;;11.60;5.60;;;;;;;5.98;66.05;102962.53;5034511;28;20172;-72
2021/03/01 09:05:11;;;;;;;12.33;5.43;;;;;;;5.86;65.96;102966.00;5034614;28;20266;-72
2021/03/01 09:07:46;;;;;;;17.50;6.47;;;;;;;5.86;65.92;102963.34;5034156;28;20652;-72
2021/03/01 09:10:12;;;;;;;13.77;6.60;;;;;;;5.88;65.97;102957.16;5049689;28;20647;-71
2021/03/01 09:12:37;;;;;;;13.57;6.33;;;;;;;5.92;65.71;102958.09;5032904;28;20250;-72
2021/03/01 09:15:04;;;;;;;14.03;6.47;;;;;;;6.02;65.71;102959.00;5033213;28;20553;-72
2021/03/01 09:17:29;;;;;;;11.23;5.57;;;;;;;6.11;65.75;102959.84;5032934;28;20545;-72
2021/03/01 09:19:55;;;;;;;16.17;6.33;;;;;;;6.21;64.73;102963.38;5033072;28;20172;-72
2021/03/01 09:22:21;;;;;;;11.87;6.00;;;;;;;6.39;64.32;102968.66;5033150;28;20198;-73
2021/03/01 09:24:46;;;;;;;18.27;6.90;;;;;;;6.36;64.35;102963.38;5032873;28;20228;-72
2021/03/01 09:27:11;;;;;;;12.30;5.97;;;;;;;6.42;64.36;102966.00;5033383;28;20173;-73
2021/03/01 09:29:37;;;;;;;14.30;6.87;;;;;;;6.52;64.26;102969.53;5034161;28;20169;-71
2021/03/01 09:32:02;;;;;;;13.90;6.80;;;;;;;6.45;64.52;102960.69;5034708;28;20188;-71
2021/03/01 09:34:28;;;;;;;12.37;6.73;;;;;;;6.59;63.59;102969.50;5034047;28;20226;-71
2021/03/01 09:36:53;;;;;;;15.30;7.60;;;;;;;6.67;63.50;102961.50;5034158;28;20180;-72
2021/03/01 09:39:25;;;;;;;11.00;6.40;;;;;;;6.66;63.11;102970.34;5035385;28;20181;-73
2021/03/01 09:41:51;;;;;;;17.37;6.97;;;;;;;6.69;63.32;102956.19;5033071;28;20184;-73
2021/03/01 09:44:26;;;;;;;14.07;6.50;;;;;;;6.84;63.26;102953.50;5033375;28;20548;-74
2021/03/01 09:46:54;;;;;;;13.83;7.40;;;;;;;7.03;62.97;102952.53;5034258;28;20207;-72
2021/03/01 09:49:19;;;;;;;13.43;6.73;;;;;;;7.13;61.90;102956.91;5032859;28;20544;-73
2021/03/01 09:51:45;;;;;;;13.07;6.80;;;;;;;7.28;62.01;102945.31;5034099;28;20196;-73
2021/03/01 09:54:11;;;;;;;15.83;7.07;;;;;;;7.42;61.55;102946.09;5033864;28;20169;-72
2021/03/01 09:56:41;;;;;;;13.90;6.87;;;;;;;7.48;61.28;102955.84;5032951;28;20181;-73
2021/03/01 09:59:06;;;;;;;15.13;7.60;;;;;;;7.19;60.98;102940.94;5035076;28;20153;-72
2021/03/01 10:01:32;;;;;;;22.27;8.47;;;;;;;7.00;61.78;102957.84;5033969;28;20182;-72
2021/03/01 10:03:57;;;;;;;13.43;6.97;;;;;;;6.71;62.40;102944.72;5034497;28;20180;-72
2021/03/01 10:06:33;;;;;;;15.33;7.40;;;;;;;6.41;64.36;102953.63;5032216;28;20209;-73
2021/03/01 10:09:08;;;;;;;15.70;7.40;;;;;;;6.81;62.92;102958.84;5032767;28;20180;-73
2021/03/01 10:11:34;;;;;;;13.83;6.90;;;;;;;7.01;61.90;102966.69;5032216;28;20192;-73
2021/03/01 10:14:03;;;;;;;15.33;7.47;;;;;;;7.33;61.58;102969.19;5032765;28;20199;-72
2021/03/01 10:16:34;;;;;;;15.17;7.80;;;;;;;7.54;60.57;102961.13;5033564;28;20193;-71
2021/03/01 10:19:13;;;;;;;17.20;8.00;;;;;;;8.28;58.72;102967.59;5048774;28;20260;-72
2021/03/01 10:21:38;;;;;;;17.17;7.00;;;;;;;8.81;57.18;102954.63;5032656;28;20167;-73
2021/03/01 10:24:06;;;;;;;14.70;7.53;;;;;;;9.21;55.36;102955.00;5033499;28;20701;-72
2021/03/01 10:26:33;;;;;;;17.43;6.80;;;;;;;9.05;55.21;102965.00;5032015;28;20196;-72
2021/03/01 10:29:01;;;;;;;19.70;8.20;;;;;;;8.87;56.26;102963.44;5032037;28;20236;-72
2021/03/01 10:31:32;;;;;;;14.27;7.53;;;;;;;8.78;55.79;102968.88;5033100;28;20265;-72
2021/03/01 10:33:58;;;;;;;17.07;7.70;;;;;;;8.59;57.03;102968.22;5032140;28;20152;-72
2021/03/01 10:36:25;;;;;;;15.13;8.17;;;;;;;8.42;56.67;102976.34;5033278;28;20194;-72
2021/03/01 10:38:52;;;;;;;10.17;6.20;;;;;;;8.75;56.86;102964.47;5017588;28;20210;-73
2021/03/01 10:41:21;;;;;;;13.20;7.07;;;;;;;8.85;55.47;102965.22;5037575;28;20174;-73
2021/03/01 10:44:06;;;;;;;18.70;7.60;;;;;;;8.96;55.58;102966.00;5036185;28;20666;-72
2021/03/01 10:46:38;;;;;;;15.67;7.13;;;;;;;8.86;55.82;102960.78;5036076;28;20634;-72
2021/03/01 10:49:16;;;;;;;19.77;8.27;;;;;;;8.93;55.93;102966.03;5036113;28;20671;-73
2021/03/01 10:51:41;;;;;;;14.87;8.03;;;;;;;9.30;55.46;102960.25;5036028;28;20211;-73
2021/03/01 10:54:07;;;;;;;17.83;8.53;;;;;;;9.21;55.01;102955.88;5036045;28;20187;-73
2021/03/01 10:56:33;;;;;;;17.80;8.00;;;;;;;9.60;54.21;102973.09;5037032;28;20599;-72
2021/03/01 10:58:58;;;;;;;16.33;7.27;;;;;;;9.39;54.21;102974.31;5037026;28;20718;-73
2021/03/01 11:01:37;;;;;;;14.20;8.20;;;;;;;9.87;54.39;102968.25;5037083;28;20565;-72
2021/03/01 11:04:04;;;;;;;26.60;8.30;;;;;;;9.66;54.54;102970.38;5037147;28;20600;-73
2021/03/01 11:06:29;;;;;;;12.67;7.70;;;;;;;10.33;53.00;102969.25;5037357;28;20673;-72
2021/03/01 11:08:55;;;;;;;16.40;8.00;;;;;;;11.23;50.27;102975.50;5037149;28;20259;-73
2021/03/01 11:11:20;;;;;;;16.70;8.13;;;;;;;9.75;53.98;102980.00;5036926;28;20271;-73
2021/03/01 11:13:46;;;;;;;14.50;8.10;;;;;;;9.71;54.20;102975.63;5037351;28;20209;-72
2021/03/01 11:16:11;;;;;;;17.70;8.37;;;;;;;9.62;54.65;102983.75;5037048;28;20228;-73
2021/03/01 11:18:36;;;;;;;17.87;10.53;;;;;;;10.16;52.48;102976.66;5037055;28;20164;-73
2021/03/01 11:21:02;;;;;;;18.57;8.63;;;;;;;9.77;53.64;102983.53;5037404;28;20536;-73
2021/03/01 11:23:27;;;;;;;20.60;10.70;;;;;;;9.93;53.63;102974.38;5035947;28;20176;-73
2021/03/01 11:25:53;;;;;;;15.17;7.87;;;;;;;12.67;46.66;102978.19;5036936;28;20196;-74